sensor_id;sensor_type;location;lat;lon;timestamp;pressure;altitude;pressure_sealevel;temperature;humidity
70815;BME280;58428;49.478;10.986;2022-10-28T00:02:16;99273.38;;;12.85;100.00
70815;BME280;58428;49.478;10.986;2022-10-28T00:04:41;99283.75;;;12.83;100.00
70815;BME280;58428;49.478;10.986;2022-10-28T00:07:08;99285.34;;;12.84;100.00
70815;BME280;58428;49.478;10.986;2022-10-28T00:09:33;99277.34;;;12.79;100.00
70815;BME280;58428;49.478;10.986;2022-10-28T00:11:59;99282.16;;;12.82;100.00
70815;BME280;58428;49.478;10.986;2022-10-28T00:14:25;99278.78;;;12.85;100.00
70815;BME280;58428;49.478;10.986;2022-10-28T00:16:50;99283.59;;;12.88;100.00
70815;BME280;58428;49.478;10.986;2022-10-28T00:19:16;99274.50;;;12.84;100.00
70815;BME280;58428;49.478;10.986;2022-10-28T00:21:43;99281.84;;;12.84;100.00
70815;BME280;58428;49.478;10.986;2022-10-28T00:24:10;99281.84;;;12.84;100.00
70815;BME280;58428;49.478;10.986;2022-10-28T00:26:38;99280.72;;;12.85;100.00
70815;BME280;58428;49.478;10.986;2022-10-28T00:29:11;99276.25;;;12.88;100.00
70815;BME280;58428;49.478;10.986;2022-10-28T00:31:37;99283.47;;;12.93;100.00
70815;BME280;58428;49.478;10.986;2022-10-28T00:34:05;99281.69;;;12.97;100.00
70815;BME280;58428;49.478;10.986;2022-10-28T00:36:34;99279.94;;;13.01;100.00
70815;BME280;58428;49.478;10.986;2022-10-28T00:39:07;99276.41;;;13.00;100.00
70815;BME280;58428;49.478;10.986;2022-10-28T00:41:37;99280.06;;;13.04;100.00
70815;BME280;58428;49.478;10.986;2022-10-28T00:49:53;99274.00;;;13.07;100.00
70815;BME280;58428;49.478;10.986;2022-10-28T00:52:23;99277.34;;;13.04;100.00
70815;BME280;58428;49.478;10.986;2022-10-28T00:54:50;99279.78;;;12.97;100.00
70815;BME280;58428;49.478;10.986;2022-10-28T00:57:19;99283.94;;;12.95;100.00
70815;BME280;58428;49.478;10.986;2022-10-28T00:59:49;99288.06;;;12.92;100.00
70815;BME280;58428;49.478;10.986;2022-10-28T01:02:16;99278.97;;;12.88;100.00
70815;BME280;58428;49.478;10.986;2022-10-28T01:04:42;99279.13;;;12.92;100.00
70815;BME280;58428;49.478;10.986;2022-10-28T01:07:09;99284.72;;;12.95;100.00
70815;BME280;58428;49.478;10.986;2022-10-28T01:09:36;99273.06;;;12.95;100.00
70815;BME280;58428;49.478;10.986;2022-10-28T01:17:37;99283.13;;;12.86;100.00
70815;BME280;58428;49.478;10.986;2022-10-28T01:23:59;99280.38;;;12.78;100.00
70815;BME280;58428;49.478;10.986;2022-10-28T01:45:18;99265.50;;;12.67;100.00
70815;BME280;58428;49.478;10.986;2022-10-28T01:47:56;99258.63;;;12.69;100.00
70815;BME280;58428;49.478;10.986;2022-10-28T01:50:28;99252.59;;;12.72;100.00
70815;BME280;58428;49.478;10.986;2022-10-28T01:53:00;99251.13;;;12.75;100.00
70815;BME280;58428;49.478;10.986;2022-10-28T01:55:36;99252.41;;;12.77;100.00
70815;BME280;58428;49.478;10.986;2022-10-28T01:58:04;99245.88;;;12.78;100.00
70815;BME280;58428;49.478;10.986;2022-10-28T02:00:31;99247.50;;;12.79;100.00
70815;BME280;58428;49.478;10.986;2022-10-28T02:05:49;99241.44;;;12.82;100.00
70815;BME280;58428;49.478;10.986;2022-10-28T02:08:21;99243.84;;;12.84;100.00
70815;BME280;58428;49.478;10.986;2022-10-28T02:21:34;99235.50;;;12.88;100.00
70815;BME280;58428;49.478;10.986;2022-10-28T02:24:33;99237.91;;;12.90;100.00
70815;BME280;58428;49.478;10.986;2022-10-28T02:27:11;99233.28;;;12.90;100.00
70815;BME280;58428;49.478;10.986;2022-10-28T02:29:47;99231.84;;;12.93;100.00
70815;BME280;58428;49.478;10.986;2022-10-28T02:32:19;99231.19;;;12.96;100.00
70815;BME280;58428;49.478;10.986;2022-10-28T02:34:49;99239.66;;;12.94;100.00
70815;BME280;58428;49.478;10.986;2022-10-28T02:37:23;99241.09;;;12.92;100.00
70815;BME280;58428;49.478;10.986;2022-10-28T02:39:55;99254.84;;;12.87;100.00
70815;BME280;58428;49.478;10.986;2022-10-28T02:42:33;99240.28;;;12.83;100.00
70815;BME280;58428;49.478;10.986;2022-10-28T02:45:12;99244.25;;;12.77;100.00
70815;BME280;58428;49.478;10.986;2022-10-28T02:47:43;99234.38;;;12.73;100.00
70815;BME280;58428;49.478;10.986;2022-10-28T02:50:14;99236.59;;;12.71;100.00
70815;BME280;58428;49.478;10.986;2022-10-28T02:52:44;99236.28;;;12.72;100.00
70815;BME280;58428;49.478;10.986;2022-10-28T02:55:12;99231.34;;;12.74;100.00
70815;BME280;58428;49.478;10.986;2022-10-28T02:57:41;99227.19;;;12.77;100.00
70815;BME280;58428;49.478;10.986;2022-10-28T03:00:12;99233.13;;;12.79;100.00
70815;BME280;58428;49.478;10.986;2022-10-28T03:02:39;99230.41;;;12.79;100.00
70815;BME280;58428;49.478;10.986;2022-10-28T03:05:06;99223.53;;;12.81;100.00
70815;BME280;58428;49.478;10.986;2022-10-28T03:07:32;99228.66;;;12.83;100.00
70815;BME280;58428;49.478;10.986;2022-10-28T03:09:57;99236.97;;;12.86;100.00
70815;BME280;58428;49.478;10.986;2022-10-28T03:12:23;99234.25;;;12.86;100.00
70815;BME280;58428;49.478;10.986;2022-10-28T03:14:48;99235.53;;;12.80;100.00
70815;BME280;58428;49.478;10.986;2022-10-28T03:17:14;99237.25;;;12.76;100.00
70815;BME280;58428;49.478;10.986;2022-10-28T03:19:39;99230.06;;;12.72;100.00
70815;BME280;58428;49.478;10.986;2022-10-28T03:22:04;99227.66;;;12.70;100.00
70815;BME280;58428;49.478;10.986;2022-10-28T03:24:30;99227.50;;;12.67;100.00
70815;BME280;58428;49.478;10.986;2022-10-28T03:26:55;99225.91;;;12.66;100.00
70815;BME280;58428;49.478;10.986;2022-10-28T03:29:21;99227.03;;;12.65;100.00
70815;BME280;58428;49.478;10.986;2022-10-28T03:31:47;99232.94;;;12.67;100.00
70815;BME280;58428;49.478;10.986;2022-10-28T03:34:12;99235.97;;;12.65;100.00
70815;BME280;58428;49.478;10.986;2022-10-28T03:36:39;99230.69;;;12.69;100.00
70815;BME280;58428;49.478;10.986;2022-10-28T03:39:04;99231.50;;;12.69;100.00
70815;BME280;58428;49.478;10.986;2022-10-28T03:41:29;99222.25;;;12.70;100.00
70815;BME280;58428;49.478;10.986;2022-10-28T03:43:55;99219.19;;;12.63;100.00
70815;BME280;58428;49.478;10.986;2022-10-28T03:46:21;99212.50;;;12.61;100.00
70815;BME280;58428;49.478;10.986;2022-10-28T03:48:46;99224.31;;;12.56;100.00
70815;BME280;58428;49.478;10.986;2022-10-28T03:51:12;99217.28;;;12.55;100.00
70815;BME280;58428;49.478;10.986;2022-10-28T03:53:37;99227.03;;;12.56;100.00
70815;BME280;58428;49.478;10.986;2022-10-28T03:56:03;99228.63;;;12.57;100.00
70815;BME280;58428;49.478;10.986;2022-10-28T03:58:28;99231.03;;;12.59;100.00
70815;BME280;58428;49.478;10.986;2022-10-28T04:00:54;99225.09;;;12.57;100.00
70815;BME280;58428;49.478;10.986;2022-10-28T04:03:21;99220.16;;;12.59;100.00
70815;BME280;58428;49.478;10.986;2022-10-28T04:05:47;99225.59;;;12.59;100.00
70815;BME280;58428;49.478;10.986;2022-10-28T04:08:14;99222.88;;;12.59;100.00
70815;BME280;58428;49.478;10.986;2022-10-28T04:10:40;99229.09;;;12.59;100.00
70815;BME280;58428;49.478;10.986;2022-10-28T04:13:06;99231.03;;;12.59;100.00
70815;BME280;58428;49.478;10.986;2022-10-28T04:15:32;99223.97;;;12.58;100.00
70815;BME280;58428;49.478;10.986;2022-10-28T04:17:57;99234.22;;;12.61;100.00
70815;BME280;58428;49.478;10.986;2022-10-28T04:20:23;99233.06;;;12.62;100.00
70815;BME280;58428;49.478;10.986;2022-10-28T04:22:48;99230.06;;;12.63;100.00
70815;BME280;58428;49.478;10.986;2022-10-28T04:25:14;99235.47;;;12.63;100.00
70815;BME280;58428;49.478;10.986;2022-10-28T04:27:39;99230.06;;;12.63;100.00
70815;BME280;58428;49.478;10.986;2022-10-28T04:30:05;99231.97;;;12.63;100.00
70815;BME280;58428;49.478;10.986;2022-10-28T04:32:31;99224.16;;;12.61;100.00
70815;BME280;58428;49.478;10.986;2022-10-28T04:34:56;99229.09;;;12.59;100.00
70815;BME280;58428;49.478;10.986;2022-10-28T04:37:22;99238.38;;;12.58;100.00
70815;BME280;58428;49.478;10.986;2022-10-28T04:39:47;99226.38;;;12.59;100.00
70815;BME280;58428;49.478;10.986;2022-10-28T04:42:13;99232.13;;;12.58;100.00
70815;BME280;58428;49.478;10.986;2022-10-28T04:44:38;99233.25;;;12.57;100.00
70815;BME280;58428;49.478;10.986;2022-10-28T04:47:04;99232.13;;;12.58;100.00
70815;BME280;58428;49.478;10.986;2022-10-28T04:49:29;99240.25;;;12.58;100.00
70815;BME280;58428;49.478;10.986;2022-10-28T04:51:55;99238.19;;;12.55;100.00
70815;BME280;58428;49.478;10.986;2022-10-28T04:54:20;99237.41;;;12.54;100.00
70815;BME280;58428;49.478;10.986;2022-10-28T04:56:45;99230.38;;;12.53;100.00
70815;BME280;58428;49.478;10.986;2022-10-28T04:59:11;99233.88;;;12.54;100.00
70815;BME280;58428;49.478;10.986;2022-10-28T05:01:36;99239.66;;;12.52;100.00
70815;BME280;58428;49.478;10.986;2022-10-28T05:04:02;99246.66;;;12.53;100.00
70815;BME280;58428;49.478;10.986;2022-10-28T05:06:27;99254.63;;;12.50;100.00
70815;BME280;58428;49.478;10.986;2022-10-28T05:08:53;99263.44;;;12.47;100.00
70815;BME280;58428;49.478;10.986;2022-10-28T05:11:18;99263.91;;;12.41;100.00
70815;BME280;58428;49.478;10.986;2022-10-28T05:13:44;99268.50;;;12.40;100.00
70815;BME280;58428;49.478;10.986;2022-10-28T05:16:09;99262.94;;;12.45;100.00
70815;BME280;58428;49.478;10.986;2022-10-28T05:18:35;99250.34;;;12.49;100.00
70815;BME280;58428;49.478;10.986;2022-10-28T05:21:00;99255.75;;;12.41;100.00
70815;BME280;58428;49.478;10.986;2022-10-28T05:23:26;99252.41;;;12.44;100.00
70815;BME280;58428;49.478;10.986;2022-10-28T05:25:51;99251.59;;;12.43;100.00
70815;BME280;58428;49.478;10.986;2022-10-28T05:28:17;99250.16;;;12.46;100.00
70815;BME280;58428;49.478;10.986;2022-10-28T05:30:43;99244.59;;;12.50;100.00
70815;BME280;58428;49.478;10.986;2022-10-28T05:33:09;99243.47;;;12.60;100.00
70815;BME280;58428;49.478;10.986;2022-10-28T05:35:36;99235.66;;;12.67;100.00
70815;BME280;58428;49.478;10.986;2022-10-28T05:38:01;99236.59;;;12.71;100.00
70815;BME280;58428;49.478;10.986;2022-10-28T05:40:27;99233.88;;;12.71;100.00
70815;BME280;58428;49.478;10.986;2022-10-28T05:42:52;99232.13;;;12.75;100.00
70815;BME280;58428;49.478;10.986;2022-10-28T05:45:19;99240.75;;;12.77;100.00
70815;BME280;58428;49.478;10.986;2022-10-28T05:47:46;99243.97;;;12.79;100.00
70815;BME280;58428;49.478;10.986;2022-10-28T05:50:14;99240.63;;;12.82;100.00
70815;BME280;58428;49.478;10.986;2022-10-28T05:52:44;99243.34;;;12.82;100.00
70815;BME280;58428;49.478;10.986;2022-10-28T05:55:10;99241.13;;;12.84;100.00
70815;BME280;58428;49.478;10.986;2022-10-28T05:57:35;99243.50;;;12.85;100.00
70815;BME280;58428;49.478;10.986;2022-10-28T06:00:01;99254.22;;;12.90;100.00
70815;BME280;58428;49.478;10.986;2022-10-28T06:02:26;99258.53;;;12.91;100.00
70815;BME280;58428;49.478;10.986;2022-10-28T06:04:52;99261.88;;;12.88;100.00
70815;BME280;58428;49.478;10.986;2022-10-28T06:07:17;99266.34;;;12.84;100.00
70815;BME280;58428;49.478;10.986;2022-10-28T06:09:43;99264.88;;;12.78;100.00
70815;BME280;58428;49.478;10.986;2022-10-28T06:12:08;99261.09;;;12.88;100.00
70815;BME280;58428;49.478;10.986;2022-10-28T06:14:35;99253.91;;;12.91;100.00
70815;BME280;58428;49.478;10.986;2022-10-28T06:17:00;99266.00;;;13.02;100.00
70815;BME280;58428;49.478;10.986;2022-10-28T06:19:26;99264.91;;;13.03;100.00
70815;BME280;58428;49.478;10.986;2022-10-28T06:21:51;99267.91;;;13.10;100.00
70815;BME280;58428;49.478;10.986;2022-10-28T06:24:17;99268.25;;;13.09;100.00
70815;BME280;58428;49.478;10.986;2022-10-28T06:26:42;99269.38;;;13.16;100.00
70815;BME280;58428;49.478;10.986;2022-10-28T06:29:11;99270.66;;;13.19;100.00
70815;BME280;58428;49.478;10.986;2022-10-28T06:31:40;99282.31;;;13.19;100.00
70815;BME280;58428;49.478;10.986;2022-10-28T06:34:08;99275.75;;;13.20;100.00
70815;BME280;58428;49.478;10.986;2022-10-28T06:36:37;99270.34;;;13.20;100.00
70815;BME280;58428;49.478;10.986;2022-10-28T06:39:23;99269.50;;;13.20;100.00
70815;BME280;58428;49.478;10.986;2022-10-28T06:41:49;99283.09;;;13.28;100.00
70815;BME280;58428;49.478;10.986;2022-10-28T06:44:14;99283.22;;;13.31;100.00
70815;BME280;58428;49.478;10.986;2022-10-28T06:46:40;99286.13;;;13.35;100.00
70815;BME280;58428;49.478;10.986;2022-10-28T06:49:05;99288.69;;;13.40;100.00
70815;BME280;58428;49.478;10.986;2022-10-28T06:51:31;99295.84;;;13.44;100.00
70815;BME280;58428;49.478;10.986;2022-10-28T06:53:56;99300.97;;;13.37;100.00
70815;BME280;58428;49.478;10.986;2022-10-28T06:56:22;99312.19;;;13.36;100.00
70815;BME280;58428;49.478;10.986;2022-10-28T06:58:52;99311.53;;;13.39;100.00
70815;BME280;58428;49.478;10.986;2022-10-28T07:01:18;99313.31;;;13.43;100.00
70815;BME280;58428;49.478;10.986;2022-10-28T07:03:45;99321.47;;;13.43;100.00
70815;BME280;58428;49.478;10.986;2022-10-28T07:06:11;99335.69;;;13.40;100.00
70815;BME280;58428;49.478;10.986;2022-10-28T07:08:36;99328.00;;;13.42;100.00
70815;BME280;58428;49.478;10.986;2022-10-28T07:11:01;99324.44;;;13.59;100.00
70815;BME280;58428;49.478;10.986;2022-10-28T07:13:27;99325.72;;;13.69;100.00
70815;BME280;58428;49.478;10.986;2022-10-28T07:15:54;99329.06;;;13.75;100.00
70815;BME280;58428;49.478;10.986;2022-10-28T07:18:21;99291.41;;;13.85;100.00
70815;BME280;58428;49.478;10.986;2022-10-28T07:20:47;99241.50;;;13.90;100.00
70815;BME280;58428;49.478;10.986;2022-10-28T07:23:13;99213.63;;;13.93;100.00
70815;BME280;58428;49.478;10.986;2022-10-28T07:25:38;99187.66;;;13.95;100.00
70815;BME280;58428;49.478;10.986;2022-10-28T07:28:04;99182.56;;;13.94;100.00
70815;BME280;58428;49.478;10.986;2022-10-28T07:30:30;99193.78;;;13.92;100.00
70815;BME280;58428;49.478;10.986;2022-10-28T07:32:55;99277.38;;;13.75;100.00
70815;BME280;58428;49.478;10.986;2022-10-28T07:35:28;99292.56;;;13.76;100.00
70815;BME280;58428;49.478;10.986;2022-10-28T07:37:53;99266.78;;;13.82;100.00
70815;BME280;58428;49.478;10.986;2022-10-28T07:40:20;99289.69;;;13.81;100.00
70815;BME280;58428;49.478;10.986;2022-10-28T07:42:45;99281.47;;;13.89;100.00
70815;BME280;58428;49.478;10.986;2022-10-28T07:45:11;99266.09;;;14.01;100.00
70815;BME280;58428;49.478;10.986;2022-10-28T07:47:38;99262.50;;;14.18;100.00
70815;BME280;58428;49.478;10.986;2022-10-28T07:50:05;99271.41;;;14.27;100.00
70815;BME280;58428;49.478;10.986;2022-10-28T07:52:31;99271.53;;;14.30;100.00
70815;BME280;58428;49.478;10.986;2022-10-28T07:54:56;99282.25;;;14.35;100.00
70815;BME280;58428;49.478;10.986;2022-10-28T07:57:21;99266.59;;;14.52;100.00
70815;BME280;58428;49.478;10.986;2022-10-28T07:59:47;99265.56;;;14.65;100.00
70815;BME280;58428;49.478;10.986;2022-10-28T08:02:18;99257.47;;;14.77;100.00
70815;BME280;58428;49.478;10.986;2022-10-28T08:04:44;99268.19;;;14.94;100.00
70815;BME280;58428;49.478;10.986;2022-10-28T08:07:10;99259.56;;;15.12;100.00
70815;BME280;58428;49.478;10.986;2022-10-28T08:09:35;99264.34;;;15.35;100.00
70815;BME280;58428;49.478;10.986;2022-10-28T08:12:00;99263.22;;;15.48;100.00
70815;BME280;58428;49.478;10.986;2022-10-28T08:14:26;99259.72;;;15.59;100.00
70815;BME280;58428;49.478;10.986;2022-10-28T08:16:51;99265.06;;;15.56;100.00
70815;BME280;58428;49.478;10.986;2022-10-28T08:19:16;99269.53;;;15.72;100.00
70815;BME280;58428;49.478;10.986;2022-10-28T08:21:42;99261.69;;;15.71;100.00
70815;BME280;58428;49.478;10.986;2022-10-28T08:24:07;99266.03;;;15.72;100.00
70815;BME280;58428;49.478;10.986;2022-10-28T08:26:32;99267.59;;;15.73;100.00
70815;BME280;58428;49.478;10.986;2022-10-28T08:28:58;99269.66;;;15.76;100.00
70815;BME280;58428;49.478;10.986;2022-10-28T08:31:25;99268.75;;;15.72;100.00
70815;BME280;58428;49.478;10.986;2022-10-28T08:33:51;99270.50;;;15.56;100.00
70815;BME280;58428;49.478;10.986;2022-10-28T08:36:16;99262.00;;;15.57;100.00
70815;BME280;58428;49.478;10.986;2022-10-28T08:38:42;99260.03;;;15.46;100.00
70815;BME280;58428;49.478;10.986;2022-10-28T08:49:21;99253.44;;;15.35;100.00
70815;BME280;58428;49.478;10.986;2022-10-28T08:54:36;99244.13;;;15.48;100.00
70815;BME280;58428;49.478;10.986;2022-10-28T08:57:03;99247.66;;;15.48;100.00
70815;BME280;58428;49.478;10.986;2022-10-28T08:59:39;99241.56;;;15.63;100.00
70815;BME280;58428;49.478;10.986;2022-10-28T09:02:24;99237.47;;;15.81;100.00
70815;BME280;58428;49.478;10.986;2022-10-28T09:07:40;99226.03;;;15.99;100.00
70815;BME280;58428;49.478;10.986;2022-10-28T09:10:05;99237.38;;;16.13;100.00
70815;BME280;58428;49.478;10.986;2022-10-28T09:17:52;99241.22;;;16.59;100.00
70815;BME280;58428;49.478;10.986;2022-10-28T09:23:07;99241.44;;;16.78;100.00
70815;BME280;58428;49.478;10.986;2022-10-28T09:31:02;99238.34;;;17.07;100.00
70815;BME280;58428;49.478;10.986;2022-10-28T09:36:28;99235.56;;;17.31;100.00
70815;BME280;58428;49.478;10.986;2022-10-28T09:38:57;99228.41;;;17.41;100.00
70815;BME280;58428;49.478;10.986;2022-10-28T09:41:32;99229.75;;;17.47;100.00
70815;BME280;58428;49.478;10.986;2022-10-28T09:44:05;99233.47;;;17.55;100.00
70815;BME280;58428;49.478;10.986;2022-10-28T09:46:32;99219.53;;;17.60;100.00
70815;BME280;58428;49.478;10.986;2022-10-28T09:49:02;99230.50;;;17.60;100.00
70815;BME280;58428;49.478;10.986;2022-10-28T09:54:10;99224.59;;;17.73;100.00
70815;BME280;58428;49.478;10.986;2022-10-28T09:56:37;99227.59;;;17.83;100.00
70815;BME280;58428;49.478;10.986;2022-10-28T09:59:03;99222.53;;;18.01;100.00
70815;BME280;58428;49.478;10.986;2022-10-28T10:01:37;99218.75;;;18.05;100.00
70815;BME280;58428;49.478;10.986;2022-10-28T10:04:16;99223.56;;;18.08;100.00
70815;BME280;58428;49.478;10.986;2022-10-28T10:06:43;99223.34;;;18.16;100.00
70815;BME280;58428;49.478;10.986;2022-10-28T10:09:18;99220.06;;;18.26;100.00
70815;BME280;58428;49.478;10.986;2022-10-28T10:11:45;99219.44;;;18.33;100.00
70815;BME280;58428;49.478;10.986;2022-10-28T10:14:18;99220.81;;;18.42;100.00
70815;BME280;58428;49.478;10.986;2022-10-28T10:16:55;99228.78;;;18.47;100.00
70815;BME280;58428;49.478;10.986;2022-10-28T10:19:21;99226.91;;;18.51;100.00
70815;BME280;58428;49.478;10.986;2022-10-28T10:21:49;99232.63;;;18.61;100.00
70815;BME280;58428;49.478;10.986;2022-10-28T10:24:22;99228.97;;;18.73;100.00
70815;BME280;58428;49.478;10.986;2022-10-28T10:26:48;99227.53;;;18.79;100.00
70815;BME280;58428;49.478;10.986;2022-10-28T10:29:13;99234.09;;;18.93;100.00
70815;BME280;58428;49.478;10.986;2022-10-28T10:31:39;99236.03;;;19.08;100.00
70815;BME280;58428;49.478;10.986;2022-10-28T10:34:04;99234.41;;;19.25;100.00
70815;BME280;58428;49.478;10.986;2022-10-28T10:36:33;99235.13;;;19.41;100.00
70815;BME280;58428;49.478;10.986;2022-10-28T10:39:00;99238.34;;;19.65;100.00
70815;BME280;58428;49.478;10.986;2022-10-28T10:41:36;99231.66;;;19.85;100.00
70815;BME280;58428;49.478;10.986;2022-10-28T10:49:19;99202.88;;;20.24;100.00
70815;BME280;58428;49.478;10.986;2022-10-28T10:51:52;99196.03;;;20.14;100.00
70815;BME280;58428;49.478;10.986;2022-10-28T10:54:19;99199.22;;;20.16;100.00
70815;BME280;58428;49.478;10.986;2022-10-28T10:57:14;99190.66;;;20.21;100.00
70815;BME280;58428;49.478;10.986;2022-10-28T11:00:18;99182.38;;;20.18;100.00
70815;BME280;58428;49.478;10.986;2022-10-28T11:02:46;99180.16;;;20.27;100.00
70815;BME280;58428;49.478;10.986;2022-10-28T11:05:19;99172.19;;;20.47;100.00
70815;BME280;58428;49.478;10.986;2022-10-28T11:07:47;99162.31;;;20.68;100.00
70815;BME280;58428;49.478;10.986;2022-10-28T11:10:26;99171.56;;;20.86;100.00
70815;BME280;58428;49.478;10.986;2022-10-28T11:12:59;99173.63;;;20.93;100.00
70815;BME280;58428;49.478;10.986;2022-10-28T11:15:30;99165.44;;;21.00;100.00
70815;BME280;58428;49.478;10.986;2022-10-28T11:18:03;99161.53;;;21.01;100.00
70815;BME280;58428;49.478;10.986;2022-10-28T11:26:06;99152.75;;;21.24;100.00
70815;BME280;58428;49.478;10.986;2022-10-28T11:28:50;99143.78;;;21.31;100.00
70815;BME280;58428;49.478;10.986;2022-10-28T11:50:48;99118.03;;;21.95;100.00
70815;BME280;58428;49.478;10.986;2022-10-28T12:14:39;99111.00;;;22.08;100.00
70815;BME280;58428;49.478;10.986;2022-10-28T12:17:24;99099.63;;;22.13;100.00
70815;BME280;58428;49.478;10.986;2022-10-28T12:19:57;99104.38;;;22.13;100.00
70815;BME280;58428;49.478;10.986;2022-10-28T12:22:28;99098.00;;;22.05;100.00
70815;BME280;58428;49.478;10.986;2022-10-28T12:24:58;99111.75;;;21.98;100.00
70815;BME280;58428;49.478;10.986;2022-10-28T12:27:31;99115.31;;;21.99;100.00
70815;BME280;58428;49.478;10.986;2022-10-28T12:32:48;99112.19;;;22.04;100.00
70815;BME280;58428;49.478;10.986;2022-10-28T12:35:24;99096.75;;;21.96;100.00
70815;BME280;58428;49.478;10.986;2022-10-28T12:40:29;99101.44;;;21.88;100.00
70815;BME280;58428;49.478;10.986;2022-10-28T12:43:00;99094.28;;;21.80;100.00
70815;BME280;58428;49.478;10.986;2022-10-28T12:45:30;99093.03;;;21.71;100.00
70815;BME280;58428;49.478;10.986;2022-10-28T12:48:09;99085.94;;;21.67;100.00
70815;BME280;58428;49.478;10.986;2022-10-28T12:50:45;99074.50;;;21.65;100.00
70815;BME280;58428;49.478;10.986;2022-10-28T12:53:38;99070.97;;;21.68;100.00
70815;BME280;58428;49.478;10.986;2022-10-28T12:56:10;99070.16;;;21.64;100.00
70815;BME280;58428;49.478;10.986;2022-10-28T12:58:50;99078.81;;;21.66;100.00
70815;BME280;58428;49.478;10.986;2022-10-28T13:01:20;99072.91;;;21.64;100.00
70815;BME280;58428;49.478;10.986;2022-10-28T13:03:50;99074.50;;;21.65;100.00
70815;BME280;58428;49.478;10.986;2022-10-28T13:06:28;99067.44;;;21.67;100.00
70815;BME280;58428;49.478;10.986;2022-10-28T13:22:46;99075.72;;;22.24;100.00
70815;BME280;58428;49.478;10.986;2022-10-28T13:25:37;99074.97;;;22.37;100.00
70815;BME280;58428;49.478;10.986;2022-10-28T13:28:14;99068.28;;;22.35;100.00
70815;BME280;58428;49.478;10.986;2022-10-28T13:31:16;99074.56;;;22.35;100.00
70815;BME280;58428;49.478;10.986;2022-10-28T13:33:58;99078.56;;;22.38;100.00
70815;BME280;58428;49.478;10.986;2022-10-28T13:38:59;99086.03;;;22.34;100.00
70815;BME280;58428;49.478;10.986;2022-10-28T13:41:42;99078.94;;;22.36;100.00
70815;BME280;58428;49.478;10.986;2022-10-28T13:46:58;99078.91;;;22.33;100.00
70815;BME280;58428;49.478;10.986;2022-10-28T14:00:05;99093.84;;;22.28;100.00
70815;BME280;58428;49.478;10.986;2022-10-28T14:03:04;99091.06;;;22.25;100.00
70815;BME280;58428;49.478;10.986;2022-10-28T14:08:04;99095.72;;;22.14;100.00
70815;BME280;58428;49.478;10.986;2022-10-28T14:10:33;99088.16;;;22.04;100.00
70815;BME280;58428;49.478;10.986;2022-10-28T14:13:01;99083.41;;;21.98;100.00
70815;BME280;58428;49.478;10.986;2022-10-28T14:15:29;99085.28;;;21.87;100.00
70815;BME280;58428;49.478;10.986;2022-10-28T14:20:45;99080.84;;;21.72;100.00
70815;BME280;58428;49.478;10.986;2022-10-28T14:36:26;99079.81;;;21.44;100.00
70815;BME280;58428;49.478;10.986;2022-10-28T14:39:25;99082.53;;;21.41;100.00
70815;BME280;58428;49.478;10.986;2022-10-28T14:42:19;99076.16;;;21.33;100.00
70815;BME280;58428;49.478;10.986;2022-10-28T14:45:04;99076.09;;;21.26;100.00
70815;BME280;58428;49.478;10.986;2022-10-28T14:50:25;99071.19;;;21.09;100.00
70815;BME280;58428;49.478;10.986;2022-10-28T14:52:54;99075.88;;;21.05;100.00
70815;BME280;58428;49.478;10.986;2022-10-28T14:55:24;99070.31;;;20.99;100.00
70815;BME280;58428;49.478;10.986;2022-10-28T14:57:50;99068.66;;;20.91;100.00
70815;BME280;58428;49.478;10.986;2022-10-28T15:00:19;99074.44;;;20.79;100.00
70815;BME280;58428;49.478;10.986;2022-10-28T15:02:44;99070.00;;;20.71;100.00
70815;BME280;58428;49.478;10.986;2022-10-28T15:07:36;99074.88;;;20.55;100.00
70815;BME280;58428;49.478;10.986;2022-10-28T15:10:12;99072.81;;;20.45;100.00
70815;BME280;58428;49.478;10.986;2022-10-28T15:12:38;99086.84;;;20.37;100.00
70815;BME280;58428;49.478;10.986;2022-10-28T15:15:16;99091.09;;;20.31;100.00
70815;BME280;58428;49.478;10.986;2022-10-28T15:17:42;99084.69;;;20.24;100.00
70815;BME280;58428;49.478;10.986;2022-10-28T15:22:51;99090.00;;;20.10;100.00
70815;BME280;58428;49.478;10.986;2022-10-28T15:25:19;99076.97;;;20.03;100.00
70815;BME280;58428;49.478;10.986;2022-10-28T15:27:48;99077.63;;;19.97;100.00
70815;BME280;58428;49.478;10.986;2022-10-28T15:30:16;99073.19;;;19.89;100.00
70815;BME280;58428;49.478;10.986;2022-10-28T15:32:43;99087.53;;;19.79;100.00
70815;BME280;58428;49.478;10.986;2022-10-28T15:37:55;99088.91;;;19.66;100.00
70815;BME280;58428;49.478;10.986;2022-10-28T15:40:26;99080.63;;;19.63;100.00
70815;BME280;58428;49.478;10.986;2022-10-28T15:45:27;99086.41;;;19.58;100.00
70815;BME280;58428;49.478;10.986;2022-10-28T15:47:53;99079.34;;;19.57;100.00
70815;BME280;58428;49.478;10.986;2022-10-28T15:50:31;99077.81;;;19.59;100.00
70815;BME280;58428;49.478;10.986;2022-10-28T15:55:32;99076.66;;;19.60;100.00
70815;BME280;58428;49.478;10.986;2022-10-28T15:58:00;99078.97;;;19.58;100.00
70815;BME280;58428;49.478;10.986;2022-10-28T16:00:32;99087.19;;;19.58;100.00
70815;BME280;58428;49.478;10.986;2022-10-28T16:03:05;99091.53;;;19.59;100.00
70815;BME280;58428;49.478;10.986;2022-10-28T16:08:06;99080.84;;;19.51;100.00
70815;BME280;58428;49.478;10.986;2022-10-28T16:10:43;99081.47;;;19.45;100.00
70815;BME280;58428;49.478;10.986;2022-10-28T16:15:51;99101.03;;;19.40;100.00
70815;BME280;58428;49.478;10.986;2022-10-28T16:18:20;99095.09;;;19.38;100.00